createdAt,value
2023-05-10T00:00:07.809Z,64.00
2023-05-10T00:00:53.486Z,64.05
2023-05-10T00:01:26.595Z,64.06
2023-05-10T00:01:59.829Z,64.09
2023-05-10T00:02:33.015Z,64.13
2023-05-10T00:03:06.581Z,64.09
2023-05-10T00:03:40.081Z,64.04
2023-05-10T00:04:13.250Z,64.14
2023-05-10T00:04:46.455Z,64.22
2023-05-10T00:05:19.784Z,64.25
2023-05-10T00:05:53.022Z,64.28
2023-05-10T00:06:26.298Z,64.28
2023-05-10T00:06:59.456Z,64.27
2023-05-10T00:07:32.505Z,64.31
2023-05-10T00:08:05.712Z,64.33
2023-05-10T00:08:38.995Z,64.31
2023-05-10T00:09:12.178Z,64.39
2023-05-10T00:09:45.487Z,64.49
2023-05-10T00:10:18.859Z,64.53
2023-05-10T00:10:53.526Z,64.60
2023-05-10T00:11:26.722Z,64.63
2023-05-10T00:12:00.119Z,64.66
2023-05-10T00:12:33.318Z,64.71
2023-05-10T00:13:06.609Z,64.74
2023-05-10T00:13:39.875Z,64.67
2023-05-10T00:14:13.119Z,64.67
2023-05-10T00:14:46.507Z,64.66
2023-05-10T00:15:19.555Z,64.61
2023-05-10T00:15:52.631Z,64.68
2023-05-10T00:16:25.811Z,64.68
2023-05-10T00:16:59.141Z,64.70
2023-05-10T00:17:32.401Z,64.42
2023-05-10T00:18:05.567Z,64.52
2023-05-10T00:18:38.740Z,64.53
2023-05-10T00:19:12.088Z,64.31
2023-05-10T00:19:45.324Z,64.43
2023-05-10T00:20:18.742Z,64.52
2023-05-10T00:20:52.152Z,64.55
2023-05-10T00:21:25.402Z,64.54
2023-05-10T00:21:58.608Z,64.52
2023-05-10T00:22:32.066Z,64.54
2023-05-10T00:23:05.273Z,64.37
2023-05-10T00:23:38.751Z,64.48
2023-05-10T00:24:12.032Z,64.42
2023-05-10T00:24:45.434Z,64.53
2023-05-10T00:25:18.686Z,64.48
2023-05-10T00:25:51.994Z,64.45
2023-05-10T00:26:25.191Z,64.54
2023-05-10T00:26:58.387Z,64.62
2023-05-10T00:27:31.516Z,64.62
2023-05-10T00:28:04.934Z,64.56
2023-05-10T00:28:37.930Z,64.58
2023-05-10T00:29:11.072Z,64.63
2023-05-10T00:29:44.133Z,64.71
2023-05-10T00:30:17.449Z,64.72
2023-05-10T00:30:50.852Z,64.79
2023-05-10T00:31:24.049Z,64.85
2023-05-10T00:31:57.526Z,64.88
2023-05-10T00:32:30.512Z,64.86
2023-05-10T00:33:04.255Z,64.81
2023-05-10T00:33:37.583Z,64.82
2023-05-10T00:34:10.639Z,64.94
2023-05-10T00:34:43.876Z,64.94
2023-05-10T00:35:17.274Z,64.97
2023-05-10T00:35:50.503Z,64.95
2023-05-10T00:36:23.731Z,64.91
2023-05-10T00:36:57.389Z,64.93
2023-05-10T00:37:30.831Z,64.97
2023-05-10T00:38:04.069Z,64.95
2023-05-10T00:38:37.250Z,64.93
2023-05-10T00:39:10.335Z,64.95
2023-05-10T00:39:43.502Z,64.97
2023-05-10T00:40:16.939Z,64.98
2023-05-10T00:40:50.371Z,64.92
2023-05-10T00:41:23.944Z,64.88
2023-05-10T00:41:57.189Z,64.87
2023-05-10T00:42:30.220Z,64.90
2023-05-10T00:43:03.356Z,64.82
2023-05-10T00:43:36.927Z,64.79
2023-05-10T00:44:10.291Z,64.81
2023-05-10T00:44:43.548Z,64.79
2023-05-10T00:45:17.055Z,64.87
2023-05-10T00:45:50.887Z,64.89
2023-05-10T00:46:24.564Z,64.93
2023-05-10T00:46:57.664Z,64.97
2023-05-10T00:47:31.005Z,64.92
2023-05-10T00:48:05.039Z,64.93
2023-05-10T00:48:38.307Z,64.99
2023-05-10T00:49:11.642Z,65.06
2023-05-10T00:49:45.291Z,65.05
2023-05-10T00:50:18.769Z,65.05
2023-05-10T00:50:52.136Z,65.07
2023-05-10T00:51:25.598Z,65.00
2023-05-10T00:51:58.883Z,65.04
2023-05-10T00:52:32.453Z,64.95
2023-05-10T00:53:05.760Z,63.17
2023-05-10T00:53:39.093Z,63.29
2023-05-10T00:54:12.937Z,63.44
2023-05-10T00:54:46.228Z,63.69
2023-05-10T00:55:19.701Z,63.86
2023-05-10T00:55:52.944Z,64.08
2023-05-10T00:56:26.687Z,64.14
2023-05-10T00:56:59.999Z,64.27
2023-05-10T00:57:33.168Z,64.36
2023-05-10T00:58:06.808Z,64.47
2023-05-10T00:58:41.128Z,64.58
2023-05-10T00:59:14.183Z,64.65
2023-05-10T00:59:47.469Z,64.74
2023-05-10T01:00:20.936Z,64.86
2023-05-10T01:00:54.732Z,64.97
2023-05-10T01:01:29.068Z,65.03
2023-05-10T01:02:02.872Z,65.12
2023-05-10T01:02:36.580Z,65.14
2023-05-10T01:03:10.818Z,65.10
2023-05-10T01:03:43.994Z,65.04
2023-05-10T01:04:17.245Z,65.06
2023-05-10T01:04:50.739Z,65.10
2023-05-10T01:05:24.082Z,65.14
2023-05-10T01:05:57.177Z,65.12
2023-05-10T01:06:30.396Z,65.14
2023-05-10T01:07:03.703Z,65.17
2023-05-10T01:07:37.039Z,65.21
2023-05-10T01:08:10.253Z,65.28
2023-05-10T01:08:43.641Z,65.35
2023-05-10T01:09:16.907Z,65.40
2023-05-10T01:09:50.075Z,65.42
2023-05-10T01:10:23.466Z,65.41
2023-05-10T01:10:56.693Z,65.43
2023-05-10T01:11:30.172Z,65.47
2023-05-10T01:12:04.126Z,65.56
2023-05-10T01:12:38.927Z,65.54
2023-05-10T01:13:12.561Z,65.49
2023-05-10T01:13:47.630Z,65.59
2023-05-10T01:14:21.530Z,65.61
2023-05-10T01:14:54.914Z,65.63
2023-05-10T01:15:28.095Z,65.67
2023-05-10T01:16:04.492Z,65.68
2023-05-10T01:16:39.381Z,65.69
2023-05-10T01:17:13.398Z,65.67
2023-05-10T01:17:48.437Z,65.63
2023-05-10T01:18:22.681Z,65.60
2023-05-10T01:18:55.880Z,65.65
2023-05-10T01:19:32.637Z,65.63
2023-05-10T01:20:06.492Z,65.66
2023-05-10T01:20:44.591Z,65.64
2023-05-10T01:21:20.782Z,65.63
2023-05-10T01:22:12.551Z,65.69
2023-05-10T01:22:52.036Z,65.65
2023-05-10T01:23:45.969Z,65.67
2023-05-10T01:24:18.919Z,65.68
2023-05-10T01:25:10.926Z,65.67
2023-05-10T01:26:02.503Z,65.66
2023-05-10T01:26:47.690Z,65.74
2023-05-10T01:27:21.056Z,65.83
2023-05-10T01:28:00.087Z,65.83
2023-05-10T01:28:51.732Z,65.74
2023-05-10T01:29:34.282Z,65.69
2023-05-10T01:30:15.449Z,65.66
2023-05-10T01:30:52.665Z,65.67
2023-05-10T01:31:25.924Z,65.70
2023-05-10T01:32:17.804Z,65.76
2023-05-10T01:32:51.738Z,65.75
2023-05-10T01:33:43.575Z,65.78
2023-05-10T01:34:24.055Z,65.74
2023-05-10T01:35:03.078Z,65.77
2023-05-10T01:35:36.228Z,65.82
2023-05-10T01:36:28.113Z,65.80
2023-05-10T01:37:07.185Z,65.79
2023-05-10T01:37:58.202Z,65.80
2023-05-10T01:38:38.628Z,65.89
2023-05-10T01:39:11.863Z,65.91
2023-05-10T01:39:53.820Z,65.94
2023-05-10T01:40:32.967Z,65.98
2023-05-10T01:41:14.390Z,66.02
2023-05-10T01:41:47.576Z,66.05
2023-05-10T01:42:28.385Z,66.08
2023-05-10T01:43:03.917Z,66.09
2023-05-10T01:43:46.363Z,66.08
2023-05-10T01:44:26.025Z,66.08
2023-05-10T01:45:13.880Z,66.00
2023-05-10T01:46:01.118Z,66.04
2023-05-10T01:46:39.789Z,65.95
2023-05-10T01:47:15.731Z,65.95
2023-05-10T01:47:54.822Z,65.94
2023-05-10T01:48:29.896Z,65.97
2023-05-10T01:49:03.802Z,65.97
2023-05-10T01:49:41.173Z,66.03
2023-05-10T01:50:19.471Z,66.00
2023-05-10T01:50:53.518Z,66.07
2023-05-10T01:51:28.853Z,66.12
2023-05-10T01:52:08.270Z,66.17
2023-05-10T01:52:43.517Z,66.14
2023-05-10T01:53:19.962Z,66.07
2023-05-10T01:53:59.529Z,66.03
2023-05-10T01:54:34.152Z,66.08
2023-05-10T01:55:09.115Z,66.14
2023-05-10T01:55:49.907Z,66.13
2023-05-10T01:56:25.482Z,66.18
2023-05-10T01:57:04.310Z,66.01
2023-05-10T01:57:40.735Z,65.81
2023-05-10T01:58:20.335Z,65.85
2023-05-10T01:58:54.059Z,65.98
2023-05-10T01:59:30.923Z,66.03
2023-05-10T02:00:05.490Z,66.01
2023-05-10T02:00:41.121Z,65.94
2023-05-10T02:01:14.894Z,65.95
2023-05-10T02:01:48.913Z,66.01
2023-05-10T02:02:22.644Z,66.05
2023-05-10T02:02:56.647Z,66.02
2023-05-10T02:03:32.304Z,66.04
2023-05-10T02:04:07.146Z,66.09
2023-05-10T02:04:41.894Z,66.13
2023-05-10T02:05:16.786Z,66.19
2023-05-10T02:05:51.129Z,66.28
2023-05-10T02:06:25.491Z,66.29
2023-05-10T02:06:58.795Z,66.35
2023-05-10T02:07:33.720Z,66.39
2023-05-10T02:08:07.961Z,66.37
2023-05-10T02:08:41.483Z,66.41
2023-05-10T02:09:15.428Z,66.44
2023-05-10T02:09:49.271Z,66.48
2023-05-10T02:10:22.412Z,66.51
2023-05-10T02:10:56.868Z,66.52
2023-05-10T02:11:30.933Z,66.57
2023-05-10T02:12:05.148Z,66.56
2023-05-10T02:12:40.655Z,66.57
2023-05-10T02:13:15.291Z,66.59
2023-05-10T02:13:49.609Z,66.64
2023-05-10T02:14:25.563Z,66.72
2023-05-10T02:15:00.569Z,66.76
2023-05-10T02:15:34.459Z,66.80
2023-05-10T02:16:08.524Z,66.82
2023-05-10T02:16:42.247Z,66.84
2023-05-10T02:17:15.476Z,66.88
2023-05-10T02:17:48.975Z,66.89
2023-05-10T02:18:23.592Z,66.93
2023-05-10T02:18:58.367Z,66.93
2023-05-10T02:19:31.464Z,66.94
2023-05-10T02:20:06.033Z,66.88
2023-05-10T02:20:39.854Z,66.79
2023-05-10T02:21:14.485Z,66.82
2023-05-10T02:21:47.865Z,66.77
2023-05-10T02:22:21.663Z,66.80
2023-05-10T02:22:55.884Z,66.81
2023-05-10T02:23:29.697Z,66.70
2023-05-10T02:24:03.798Z,66.66
2023-05-10T02:24:38.081Z,66.69
2023-05-10T02:25:12.308Z,66.66
2023-05-10T02:25:46.532Z,66.59
2023-05-10T02:26:22.615Z,66.55
2023-05-10T02:26:59.243Z,66.47
2023-05-10T02:27:32.867Z,66.41
2023-05-10T02:28:07.124Z,66.41
2023-05-10T02:28:41.585Z,66.48
2023-05-10T02:29:15.728Z,66.53
2023-05-10T02:29:49.060Z,66.51
2023-05-10T02:30:23.601Z,66.54
2023-05-10T02:30:57.388Z,66.55
2023-05-10T02:31:33.344Z,66.52
2023-05-10T02:32:07.418Z,66.56
2023-05-10T02:32:40.951Z,66.57
2023-05-10T02:33:14.824Z,66.56
2023-05-10T02:33:48.301Z,66.55
2023-05-10T02:34:22.735Z,66.52
2023-05-10T02:34:56.101Z,66.58
2023-05-10T02:35:29.441Z,66.63
2023-05-10T02:36:03.905Z,66.56
2023-05-10T02:36:38.089Z,66.53
2023-05-10T02:37:11.661Z,66.58
2023-05-10T02:37:45.236Z,66.66
2023-05-10T02:38:20.611Z,66.61
2023-05-10T02:38:54.476Z,66.65
2023-05-10T02:39:29.768Z,66.72
2023-05-10T02:40:04.619Z,66.77
2023-05-10T02:40:38.101Z,66.76
2023-05-10T02:41:12.329Z,66.68
2023-05-10T02:41:47.368Z,66.72
2023-05-10T02:42:24.754Z,66.74
2023-05-10T02:42:59.913Z,66.87
2023-05-10T02:43:33.830Z,66.93
2023-05-10T02:44:07.992Z,66.85
2023-05-10T02:44:42.417Z,66.79
2023-05-10T02:45:18.744Z,66.85
2023-05-10T02:45:52.294Z,66.86
2023-05-10T02:46:25.439Z,66.85
2023-05-10T02:46:59.756Z,66.93
2023-05-10T02:47:33.035Z,66.96
2023-05-10T02:48:06.503Z,67.02
2023-05-10T02:48:39.898Z,67.08
2023-05-10T02:49:13.185Z,67.12
2023-05-10T02:49:46.751Z,67.19
2023-05-10T02:50:20.967Z,67.21
2023-05-10T02:50:56.233Z,67.21
2023-05-10T02:51:32.911Z,67.17
2023-05-10T02:52:08.201Z,67.21
2023-05-10T02:52:47.484Z,67.14
2023-05-10T02:53:23.909Z,67.11
2023-05-10T02:53:58.573Z,67.22
2023-05-10T02:54:34.667Z,67.26
2023-05-10T02:55:10.516Z,67.32
2023-05-10T02:55:46.344Z,67.34
2023-05-10T02:56:26.974Z,67.39
2023-05-10T02:57:01.801Z,67.38
2023-05-10T02:57:35.680Z,67.33
2023-05-10T02:58:08.786Z,67.38
2023-05-10T02:58:42.068Z,67.26
2023-05-10T02:59:15.325Z,67.17
2023-05-10T02:59:48.530Z,67.01
2023-05-10T03:00:21.973Z,67.10
2023-05-10T03:00:55.143Z,67.15
2023-05-10T03:01:28.383Z,67.14
2023-05-10T03:02:01.895Z,67.14
2023-05-10T03:02:35.321Z,67.23
2023-05-10T03:03:08.868Z,67.26
2023-05-10T03:03:42.273Z,67.34
2023-05-10T03:04:15.361Z,67.38
2023-05-10T03:04:48.406Z,67.40
2023-05-10T03:05:21.663Z,67.45
2023-05-10T03:05:59.166Z,67.44
2023-05-10T03:06:32.544Z,67.49
2023-05-10T03:07:06.015Z,67.50
2023-05-10T03:07:39.216Z,67.37
2023-05-10T03:08:12.576Z,67.35
2023-05-10T03:08:46.500Z,67.32
2023-05-10T03:09:21.072Z,67.08
2023-05-10T03:09:54.414Z,67.14
2023-05-10T03:10:28.907Z,67.27
2023-05-10T03:11:01.878Z,67.33
2023-05-10T03:11:40.920Z,67.32
2023-05-10T03:12:24.635Z,66.96
2023-05-10T03:13:20.973Z,67.11
2023-05-10T03:13:54.102Z,67.16
2023-05-10T03:14:44.874Z,67.28
2023-05-10T03:15:26.398Z,67.44
2023-05-10T03:16:06.161Z,67.56
2023-05-10T03:16:53.734Z,67.57
2023-05-10T03:17:36.126Z,67.67
2023-05-10T03:18:12.248Z,67.81
2023-05-10T03:18:49.360Z,67.83
2023-05-10T03:19:28.797Z,67.86
2023-05-10T03:20:05.794Z,67.83
2023-05-10T03:20:48.478Z,67.85
2023-05-10T03:21:24.256Z,67.91
2023-05-10T03:21:59.946Z,67.96
2023-05-10T03:22:35.898Z,68.00
2023-05-10T03:23:12.593Z,68.06
2023-05-10T03:23:49.326Z,68.12
2023-05-10T03:24:24.476Z,68.15
2023-05-10T03:25:00.938Z,68.15
2023-05-10T03:25:34.681Z,68.16
2023-05-10T03:26:08.757Z,68.14
2023-05-10T03:26:44.731Z,68.11
2023-05-10T03:27:18.559Z,68.12
2023-05-10T03:27:53.244Z,68.12
2023-05-10T03:28:27.276Z,68.16
2023-05-10T03:29:00.914Z,68.17
2023-05-10T03:29:34.453Z,68.19
2023-05-10T03:30:09.972Z,68.18
2023-05-10T03:30:44.440Z,68.16
2023-05-10T03:31:18.393Z,68.19
2023-05-10T03:31:51.529Z,68.18
2023-05-10T03:32:24.915Z,68.22
2023-05-10T03:32:58.301Z,68.27
2023-05-10T03:33:31.584Z,68.30
2023-05-10T03:34:04.755Z,68.36
2023-05-10T03:34:42.321Z,68.23
2023-05-10T03:35:15.519Z,68.05
2023-05-10T03:35:49.044Z,68.07
2023-05-10T03:36:22.212Z,68.12
2023-05-10T03:36:55.387Z,68.08
2023-05-10T03:37:28.572Z,68.07
2023-05-10T03:38:02.061Z,68.13
2023-05-10T03:38:35.309Z,68.19
2023-05-10T03:39:08.543Z,67.76
2023-05-10T03:39:41.823Z,66.60
2023-05-10T03:40:15.320Z,66.68
2023-05-10T03:40:48.571Z,66.95
2023-05-10T03:41:21.902Z,67.21
2023-05-10T03:41:55.077Z,67.39
2023-05-10T03:42:28.467Z,67.51
2023-05-10T03:43:01.654Z,67.54
2023-05-10T03:43:35.116Z,67.63
2023-05-10T03:44:08.219Z,67.66
2023-05-10T03:44:41.455Z,67.71
2023-05-10T03:45:14.959Z,67.70
2023-05-10T03:45:48.025Z,67.57
2023-05-10T03:46:21.345Z,67.51
2023-05-10T03:46:54.543Z,67.65
2023-05-10T03:47:27.826Z,67.54
2023-05-10T03:48:01.278Z,67.52
2023-05-10T03:48:34.732Z,67.40
2023-05-10T03:49:07.788Z,67.19
2023-05-10T03:49:40.917Z,67.14
2023-05-10T03:50:14.320Z,67.22
2023-05-10T03:50:47.806Z,67.33
2023-05-10T03:51:21.523Z,67.26
2023-05-10T03:51:54.734Z,66.95
2023-05-10T03:52:27.768Z,67.02
2023-05-10T03:53:01.025Z,67.14
2023-05-10T03:53:34.210Z,67.27
2023-05-10T03:54:07.340Z,67.34
2023-05-10T03:54:40.378Z,67.25
2023-05-10T03:55:13.739Z,66.93
2023-05-10T03:55:47.334Z,66.59
2023-05-10T03:56:21.874Z,66.49
2023-05-10T03:56:54.997Z,66.73
2023-05-10T03:57:28.121Z,66.85
2023-05-10T03:58:01.310Z,66.85
2023-05-10T03:58:34.481Z,67.02
2023-05-10T03:59:10.720Z,67.13
2023-05-10T03:59:43.851Z,67.26
2023-05-10T04:00:17.694Z,67.33
2023-05-10T04:00:52.141Z,67.34
2023-05-10T04:01:25.297Z,67.30
2023-05-10T04:01:58.504Z,67.36
2023-05-10T04:02:32.092Z,67.43
2023-05-10T04:03:05.552Z,67.50
2023-05-10T04:03:39.466Z,67.57
2023-05-10T04:04:12.947Z,67.68
2023-05-10T04:04:46.378Z,67.77
2023-05-10T04:05:19.593Z,67.72
2023-05-10T04:06:00.094Z,66.89
2023-05-10T04:06:33.494Z,67.16
2023-05-10T04:07:06.622Z,67.28
2023-05-10T04:07:39.783Z,67.38
2023-05-10T04:08:12.952Z,67.47
2023-05-10T04:08:46.415Z,67.54
2023-05-10T04:09:19.668Z,67.56
2023-05-10T04:09:53.497Z,67.58
2023-05-10T04:10:26.738Z,67.58
2023-05-10T04:11:07.126Z,67.65
2023-05-10T04:11:40.225Z,67.69
2023-05-10T04:12:13.483Z,67.67
2023-05-10T04:12:46.635Z,67.63
2023-05-10T04:13:20.268Z,67.48
2023-05-10T04:13:53.324Z,67.33
2023-05-10T04:14:26.579Z,67.39
2023-05-10T04:14:59.746Z,67.55
2023-05-10T04:15:32.986Z,67.57
2023-05-10T04:16:06.524Z,67.57
2023-05-10T04:16:39.846Z,67.67
2023-05-10T04:17:13.150Z,67.71
2023-05-10T04:17:46.572Z,67.73
2023-05-10T04:18:19.974Z,66.97
2023-05-10T04:18:53.165Z,66.83
2023-05-10T04:19:30.348Z,67.02
2023-05-10T04:20:04.833Z,67.12
2023-05-10T04:20:38.177Z,67.11
2023-05-10T04:21:14.771Z,66.94
2023-05-10T04:21:47.872Z,67.01
2023-05-10T04:22:21.304Z,66.85
2023-05-10T04:22:54.841Z,66.59
2023-05-10T04:23:28.434Z,66.55
2023-05-10T04:24:02.734Z,66.72
2023-05-10T04:24:35.992Z,66.78
2023-05-10T04:25:09.591Z,66.92
2023-05-10T04:25:42.838Z,67.06
2023-05-10T04:26:16.715Z,66.99
2023-05-10T04:26:49.901Z,67.01
2023-05-10T04:27:23.105Z,67.09
2023-05-10T04:27:56.282Z,67.04
2023-05-10T04:28:29.667Z,66.69
2023-05-10T04:29:03.689Z,66.71
2023-05-10T04:29:36.661Z,66.80
2023-05-10T04:30:10.041Z,66.28
2023-05-10T04:30:43.249Z,66.16
2023-05-10T04:31:16.425Z,66.08
2023-05-10T04:31:50.182Z,66.19
2023-05-10T04:32:23.461Z,66.33
2023-05-10T04:32:56.617Z,66.46
2023-05-10T04:33:30.051Z,66.54
2023-05-10T04:34:03.156Z,66.45
2023-05-10T04:34:36.363Z,66.49
2023-05-10T04:35:11.213Z,66.56
2023-05-10T04:35:45.871Z,66.57
2023-05-10T04:36:19.041Z,66.56
2023-05-10T04:36:52.134Z,66.61
2023-05-10T04:37:25.272Z,66.14
2023-05-10T04:37:58.487Z,65.74
2023-05-10T04:38:31.814Z,65.42
2023-05-10T04:39:05.421Z,64.35
2023-05-10T04:39:40.308Z,64.37
2023-05-10T04:40:15.593Z,64.01
2023-05-10T04:40:49.074Z,64.02
2023-05-10T04:41:22.249Z,64.28
2023-05-10T04:41:55.468Z,64.25
2023-05-10T04:42:28.721Z,64.13
2023-05-10T04:43:01.989Z,64.24
2023-05-10T04:43:35.369Z,64.40
2023-05-10T04:44:08.596Z,64.44
2023-05-10T04:44:42.069Z,64.29
2023-05-10T04:45:18.220Z,64.47
2023-05-10T04:45:51.537Z,64.65
2023-05-10T04:46:24.629Z,64.42
2023-05-10T04:46:57.867Z,64.13
2023-05-10T04:47:30.863Z,64.03
2023-05-10T04:48:04.165Z,64.27
2023-05-10T04:48:37.394Z,64.06
2023-05-10T04:49:10.492Z,63.68
2023-05-10T04:49:43.862Z,63.68
2023-05-10T04:50:17.230Z,63.80
2023-05-10T04:50:50.528Z,63.91
2023-05-10T04:51:23.571Z,63.65
2023-05-10T04:51:57.290Z,63.36
2023-05-10T04:52:30.435Z,63.30
2023-05-10T04:53:03.779Z,63.48
2023-05-10T04:53:37.056Z,63.65
2023-05-10T04:54:10.570Z,63.70
2023-05-10T04:54:43.593Z,63.76
2023-05-10T04:55:17.246Z,63.67
2023-05-10T04:55:50.557Z,63.35
2023-05-10T04:56:23.651Z,63.21
2023-05-10T04:56:56.701Z,63.27
2023-05-10T04:57:29.873Z,63.38
2023-05-10T04:58:03.993Z,63.39
2023-05-10T04:58:37.139Z,63.34
2023-05-10T04:59:10.225Z,63.20
2023-05-10T04:59:43.803Z,63.19
2023-05-10T05:00:17.285Z,63.22
2023-05-10T05:00:50.697Z,63.21
2023-05-10T05:01:24.414Z,63.18
2023-05-10T05:01:57.856Z,63.15
2023-05-10T05:02:31.930Z,63.13
2023-05-10T05:03:05.481Z,63.16
2023-05-10T05:03:38.755Z,63.12
2023-05-10T05:04:12.156Z,63.11
2023-05-10T05:04:45.511Z,63.17
2023-05-10T05:05:18.566Z,63.20
2023-05-10T05:05:51.723Z,63.12
2023-05-10T05:06:26.183Z,63.07
2023-05-10T05:06:59.394Z,63.06
2023-05-10T05:07:32.577Z,63.06
2023-05-10T05:08:05.815Z,63.11
2023-05-10T05:08:38.999Z,63.10
2023-05-10T05:09:12.090Z,63.14
2023-05-10T05:09:45.281Z,63.07
2023-05-10T05:10:18.806Z,63.01
2023-05-10T05:10:52.099Z,63.07
2023-05-10T05:11:25.109Z,63.15
2023-05-10T05:11:58.169Z,63.24
2023-05-10T05:12:31.345Z,63.10
2023-05-10T05:13:04.639Z,63.12
2023-05-10T05:13:38.420Z,63.17
2023-05-10T05:14:11.521Z,63.21
2023-05-10T05:14:44.607Z,63.15
2023-05-10T05:15:18.092Z,63.00
2023-05-10T05:15:51.274Z,63.03
2023-05-10T05:16:24.549Z,63.05
2023-05-10T05:16:57.812Z,63.14
2023-05-10T05:17:33.555Z,63.14
2023-05-10T05:18:06.743Z,63.15
2023-05-10T05:18:40.009Z,63.02
2023-05-10T05:19:13.137Z,62.98
2023-05-10T05:19:46.301Z,62.94
2023-05-10T05:20:20.134Z,62.89
2023-05-10T05:20:53.258Z,62.96
2023-05-10T05:21:28.085Z,62.90
2023-05-10T05:22:01.261Z,62.81
2023-05-10T05:22:34.368Z,62.84
2023-05-10T05:23:07.451Z,62.79
2023-05-10T05:23:40.845Z,62.73
2023-05-10T05:24:14.105Z,62.73
2023-05-10T05:24:47.629Z,62.72
2023-05-10T05:25:20.966Z,62.63
2023-05-10T05:25:54.774Z,62.70
2023-05-10T05:26:28.016Z,62.73
2023-05-10T05:27:01.952Z,62.82
2023-05-10T05:27:35.059Z,62.77
2023-05-10T05:28:08.125Z,62.73
2023-05-10T05:28:41.182Z,62.70
2023-05-10T05:29:14.252Z,62.73
2023-05-10T05:29:47.380Z,62.68
2023-05-10T05:30:20.596Z,62.67
2023-05-10T05:30:54.229Z,62.66
2023-05-10T05:31:27.586Z,62.67
2023-05-10T05:32:01.062Z,62.68
2023-05-10T05:32:34.295Z,62.75
2023-05-10T05:33:07.548Z,62.82
2023-05-10T05:33:40.752Z,62.89
2023-05-10T05:34:13.945Z,62.86
2023-05-10T05:34:47.152Z,62.63
2023-05-10T05:35:20.285Z,62.64
2023-05-10T05:35:53.727Z,62.58
2023-05-10T05:36:26.949Z,62.57
2023-05-10T05:37:00.028Z,62.57
2023-05-10T05:37:33.275Z,62.56
2023-05-10T05:38:07.263Z,62.50
2023-05-10T05:38:40.359Z,62.49
2023-05-10T05:39:13.502Z,62.52
2023-05-10T05:39:46.877Z,62.59
2023-05-10T05:40:20.028Z,62.64
2023-05-10T05:40:53.310Z,62.69
2023-05-10T05:41:26.520Z,62.74
2023-05-10T05:41:59.854Z,62.62
2023-05-10T05:42:33.208Z,62.48
2023-05-10T05:43:06.399Z,62.50
2023-05-10T05:43:39.584Z,62.39
2023-05-10T05:44:12.723Z,62.35
2023-05-10T05:44:46.048Z,62.36
2023-05-10T05:45:19.553Z,62.34
2023-05-10T05:45:56.273Z,62.31
2023-05-10T05:46:29.425Z,62.27
2023-05-10T05:47:03.035Z,62.22
2023-05-10T05:47:36.087Z,62.26
2023-05-10T05:48:09.364Z,62.29
2023-05-10T05:48:42.512Z,62.30
2023-05-10T05:49:15.791Z,62.22
2023-05-10T05:49:48.864Z,62.23
2023-05-10T05:50:22.087Z,62.16
2023-05-10T05:50:56.664Z,62.09
2023-05-10T05:51:30.054Z,62.12
2023-05-10T05:52:03.704Z,62.10
2023-05-10T05:52:37.272Z,62.02
2023-05-10T05:53:11.134Z,61.98
2023-05-10T05:53:44.325Z,61.97
2023-05-10T05:54:17.549Z,61.95
2023-05-10T05:54:50.722Z,62.00
2023-05-10T05:55:25.265Z,61.97
2023-05-10T05:55:59.126Z,61.95
2023-05-10T05:56:32.193Z,61.92
2023-05-10T05:57:05.736Z,61.93
2023-05-10T05:57:39.054Z,61.89
2023-05-10T05:58:12.489Z,61.91
2023-05-10T05:58:45.952Z,61.87
2023-05-10T05:59:19.056Z,61.89
2023-05-10T05:59:52.096Z,61.90
2023-05-10T06:00:25.334Z,61.83
2023-05-10T06:00:58.616Z,61.81
2023-05-10T06:01:31.843Z,61.81
2023-05-10T06:02:05.078Z,61.86
2023-05-10T06:02:38.410Z,61.96
2023-05-10T06:03:11.913Z,62.00
2023-05-10T06:03:44.975Z,61.89
2023-05-10T06:04:18.449Z,61.77
2023-05-10T06:04:51.761Z,61.82
2023-05-10T06:05:24.988Z,61.78
2023-05-10T06:05:58.316Z,61.68
2023-05-10T06:06:31.632Z,61.66
2023-05-10T06:07:04.981Z,61.61
2023-05-10T06:07:38.164Z,61.56
2023-05-10T06:08:11.427Z,61.52
2023-05-10T06:08:44.629Z,61.56
2023-05-10T06:09:17.704Z,61.50
2023-05-10T06:09:50.988Z,61.49
2023-05-10T06:10:24.038Z,61.52
2023-05-10T06:10:57.379Z,61.46
2023-05-10T06:11:31.758Z,61.39
2023-05-10T06:12:04.938Z,61.46
2023-05-10T06:12:37.987Z,61.32
2023-05-10T06:13:11.278Z,61.24
2023-05-10T06:13:44.545Z,61.14
2023-05-10T06:14:17.620Z,61.11
2023-05-10T06:14:50.729Z,61.20
2023-05-10T06:15:24.030Z,61.10
2023-05-10T06:15:57.069Z,61.04
2023-05-10T06:16:30.194Z,61.04
2023-05-10T06:17:05.371Z,61.00
2023-05-10T06:17:40.000Z,60.97
2023-05-10T06:18:13.059Z,60.96
2023-05-10T06:18:46.345Z,60.96
2023-05-10T06:19:19.500Z,61.01
2023-05-10T06:19:52.649Z,61.06
2023-05-10T06:20:26.198Z,60.98
2023-05-10T06:20:59.124Z,60.87
2023-05-10T06:21:32.362Z,60.85
2023-05-10T06:22:05.641Z,60.85
2023-05-10T06:22:38.713Z,60.84
2023-05-10T06:23:12.297Z,60.87
2023-05-10T06:23:45.725Z,60.72
2023-05-10T06:24:18.929Z,60.72
2023-05-10T06:24:52.114Z,60.70
2023-05-10T06:25:25.517Z,60.75
2023-05-10T06:25:58.833Z,60.71
2023-05-10T06:26:32.202Z,60.70
2023-05-10T06:27:05.645Z,60.71
2023-05-10T06:27:38.758Z,60.72
2023-05-10T06:28:11.884Z,60.59
2023-05-10T06:28:44.886Z,60.57
2023-05-10T06:29:18.067Z,60.53
2023-05-10T06:29:56.368Z,60.48
2023-05-10T06:30:32.380Z,60.44
2023-05-10T06:31:06.197Z,60.38
2023-05-10T06:31:39.372Z,60.33
2023-05-10T06:32:12.588Z,60.32
2023-05-10T06:32:46.649Z,60.29
2023-05-10T06:33:19.939Z,60.15
2023-05-10T06:33:54.208Z,60.15
2023-05-10T06:34:29.188Z,60.11
2023-05-10T06:35:02.282Z,60.15
2023-05-10T06:35:35.305Z,60.18
2023-05-10T06:36:08.521Z,60.11
2023-05-10T06:36:42.289Z,60.16
2023-05-10T06:37:15.507Z,60.09
2023-05-10T06:37:48.718Z,60.05
2023-05-10T06:38:22.069Z,60.03
2023-05-10T06:38:55.321Z,60.00
2023-05-10T06:39:29.941Z,59.99
2023-05-10T06:40:03.157Z,60.05
2023-05-10T06:40:37.152Z,60.09
2023-05-10T06:41:10.398Z,59.98
2023-05-10T06:41:43.480Z,59.98
2023-05-10T06:42:16.586Z,60.00
2023-05-10T06:42:49.703Z,59.97
2023-05-10T06:43:23.037Z,59.97
2023-05-10T06:43:56.218Z,60.01
2023-05-10T06:44:29.366Z,59.96
2023-05-10T06:45:02.523Z,59.92
2023-05-10T06:45:35.834Z,59.81
2023-05-10T06:46:08.950Z,59.68
2023-05-10T06:46:42.970Z,59.63
2023-05-10T06:47:16.278Z,59.63
2023-05-10T06:47:49.720Z,59.55
2023-05-10T06:48:23.068Z,59.53
2023-05-10T06:48:56.368Z,59.49
2023-05-10T06:49:29.526Z,59.33
2023-05-10T06:50:02.865Z,59.33
2023-05-10T06:50:36.304Z,59.36
2023-05-10T06:51:09.375Z,59.31
2023-05-10T06:51:42.549Z,59.28
2023-05-10T06:52:15.728Z,59.30
2023-05-10T06:52:49.529Z,59.34
2023-05-10T06:53:23.729Z,59.33
2023-05-10T06:53:56.921Z,59.32
2023-05-10T06:54:30.216Z,59.32
2023-05-10T06:55:04.755Z,59.27
2023-05-10T06:55:38.175Z,59.14
2023-05-10T06:56:11.388Z,59.03
2023-05-10T06:56:44.617Z,59.05
2023-05-10T06:57:30.539Z,59.05
2023-05-10T06:58:05.589Z,59.08
2023-05-10T06:58:39.368Z,59.10
2023-05-10T06:59:13.764Z,59.07
2023-05-10T06:59:46.771Z,58.94
2023-05-10T07:00:20.529Z,58.95
2023-05-10T07:00:54.071Z,58.98
2023-05-10T07:01:27.235Z,58.93
2023-05-10T07:02:00.386Z,58.87
2023-05-10T07:02:33.735Z,58.74
2023-05-10T07:03:07.448Z,58.64
2023-05-10T07:03:40.721Z,58.66
2023-05-10T07:04:14.850Z,58.67
2023-05-10T07:04:48.380Z,58.57
2023-05-10T07:05:21.948Z,58.48
2023-05-10T07:05:56.320Z,58.36
2023-05-10T07:06:33.847Z,58.36
2023-05-10T07:07:07.182Z,58.29
2023-05-10T07:07:40.848Z,58.10
2023-05-10T07:08:14.652Z,58.04
2023-05-10T07:08:47.898Z,58.03
2023-05-10T07:09:20.994Z,57.92
2023-05-10T07:09:54.368Z,57.67
2023-05-10T07:10:27.822Z,57.62
2023-05-10T07:11:04.667Z,57.68
2023-05-10T07:11:38.645Z,57.44
2023-05-10T07:12:14.185Z,57.31
2023-05-10T07:12:48.261Z,56.88
2023-05-10T07:13:21.604Z,56.66
2023-05-10T07:13:54.903Z,56.79
2023-05-10T07:14:28.097Z,56.81
2023-05-10T07:15:01.129Z,56.84
2023-05-10T07:15:34.667Z,57.01
2023-05-10T07:16:08.934Z,56.90
2023-05-10T07:16:42.273Z,56.73
2023-05-10T07:17:15.621Z,56.74
2023-05-10T07:17:48.621Z,56.75
2023-05-10T07:18:21.942Z,56.56
2023-05-10T07:18:55.136Z,56.57
2023-05-10T07:19:28.502Z,56.62
2023-05-10T07:20:01.915Z,56.75
2023-05-10T07:20:35.070Z,56.64
2023-05-10T07:21:08.204Z,56.71
2023-05-10T07:21:43.767Z,56.73
2023-05-10T07:22:17.919Z,56.72